createdAt,value
2023-12-30T00:00:23.450Z,95.44
2023-12-30T00:01:23.489Z,92.84
2023-12-30T00:02:23.461Z,90.73
2023-12-30T00:03:23.416Z,89.82
2023-12-30T00:04:23.505Z,90.14
2023-12-30T00:05:23.406Z,85.59
2023-12-30T00:06:23.446Z,82.17
2023-12-30T00:07:23.467Z,82.32
2023-12-30T00:08:23.427Z,82.42
2023-12-30T00:09:23.413Z,82.32
2023-12-30T00:10:23.628Z,82.37
2023-12-30T00:11:23.425Z,82.33
2023-12-30T00:12:24.404Z,81.24
2023-12-30T00:13:23.511Z,78.02
2023-12-30T00:14:23.468Z,77.60
2023-12-30T00:15:24.339Z,79.06
2023-12-30T00:16:24.410Z,75.77
2023-12-30T00:17:44.493Z,75.81
2023-12-30T00:18:23.496Z,75.93
2023-12-30T00:19:23.632Z,76.01
2023-12-30T00:20:23.498Z,76.55
2023-12-30T00:21:44.527Z,77.13
2023-12-30T00:22:25.612Z,75.92
2023-12-30T00:23:24.020Z,76.03
2023-12-30T00:24:23.557Z,76.00
2023-12-30T00:25:24.377Z,76.44
2023-12-30T00:26:23.482Z,76.32
2023-12-30T00:27:24.383Z,77.25
2023-12-30T00:28:24.441Z,76.96
2023-12-30T00:29:23.510Z,74.94
2023-12-30T00:30:23.505Z,74.15
2023-12-30T00:31:23.540Z,74.19
2023-12-30T00:32:23.511Z,74.38
2023-12-30T00:33:23.618Z,73.70
2023-12-30T00:34:24.481Z,73.46
2023-12-30T00:35:24.353Z,72.66
2023-12-30T00:36:23.648Z,73.46
2023-12-30T00:37:23.577Z,72.90
2023-12-30T00:38:24.477Z,72.52
2023-12-30T00:39:23.577Z,72.36
2023-12-30T00:40:27.176Z,72.92
2023-12-30T00:41:24.352Z,72.91
2023-12-30T00:42:23.559Z,70.24
2023-12-30T00:43:24.460Z,71.00
2023-12-30T00:44:23.986Z,69.04
2023-12-30T00:45:23.505Z,72.36
2023-12-30T00:46:23.562Z,72.66
2023-12-30T00:47:23.591Z,69.27
2023-12-30T00:48:23.535Z,68.40
2023-12-30T00:49:24.167Z,69.13
2023-12-30T00:50:23.533Z,69.59
2023-12-30T00:51:23.545Z,66.34
2023-12-30T00:52:24.597Z,69.25
2023-12-30T00:53:23.719Z,69.19
2023-12-30T00:54:25.993Z,69.19
2023-12-30T00:55:23.560Z,69.24
2023-12-30T00:56:25.401Z,68.35
2023-12-30T00:57:24.384Z,69.22
2023-12-30T00:58:23.555Z,68.55
2023-12-30T00:59:24.407Z,70.23
2023-12-30T01:00:23.513Z,69.24
2023-12-30T01:01:23.634Z,69.24
2023-12-30T01:02:23.551Z,67.86
2023-12-30T01:03:23.541Z,67.89
2023-12-30T01:04:24.872Z,67.23
2023-12-30T01:05:23.672Z,68.43
2023-12-30T01:06:24.377Z,68.77
2023-12-30T01:07:23.570Z,67.07
2023-12-30T01:08:23.599Z,68.64
2023-12-30T01:09:24.728Z,65.46
2023-12-30T01:10:25.417Z,64.25
2023-12-30T01:11:23.529Z,66.94
2023-12-30T01:12:25.381Z,68.37
2023-12-30T01:13:23.579Z,66.62
2023-12-30T01:14:23.585Z,65.81
2023-12-30T01:15:24.567Z,67.41
2023-12-30T01:16:23.576Z,66.54
2023-12-30T01:17:23.554Z,64.79
2023-12-30T01:18:23.649Z,66.34
2023-12-30T01:19:23.653Z,65.21
2023-12-30T01:20:23.646Z,64.95
2023-12-30T01:21:23.644Z,64.97
2023-12-30T01:22:26.442Z,65.87
2023-12-30T01:23:23.549Z,63.93
2023-12-30T01:24:23.930Z,65.33
2023-12-30T01:25:24.420Z,66.57
2023-12-30T01:26:23.691Z,65.71
2023-12-30T01:27:24.622Z,65.35
2023-12-30T01:28:23.593Z,64.90
2023-12-30T01:29:23.651Z,64.84
2023-12-30T01:30:23.775Z,64.08
2023-12-30T01:31:24.471Z,65.65
2023-12-30T01:32:23.609Z,65.95
2023-12-30T01:33:23.605Z,64.11
2023-12-30T01:34:23.635Z,65.33
2023-12-30T01:35:24.384Z,65.76
2023-12-30T01:36:44.579Z,65.99
2023-12-30T01:37:25.505Z,66.06
2023-12-30T01:38:23.647Z,66.67
2023-12-30T01:39:23.576Z,67.42
2023-12-30T01:40:23.686Z,68.01
2023-12-30T01:41:23.590Z,67.64
2023-12-30T01:42:23.653Z,70.06
2023-12-30T01:43:26.467Z,65.51
2023-12-30T01:44:23.662Z,66.46
2023-12-30T01:45:23.606Z,66.84
2023-12-30T01:46:24.452Z,65.96
2023-12-30T01:47:23.689Z,68.47
2023-12-30T01:48:23.757Z,65.19
2023-12-30T01:49:23.647Z,67.29
2023-12-30T01:50:24.459Z,65.65
2023-12-30T01:51:26.018Z,65.71
2023-12-30T01:52:24.496Z,65.74
2023-12-30T01:53:23.632Z,65.91
2023-12-30T01:54:23.633Z,65.69
2023-12-30T01:55:24.458Z,65.95
2023-12-30T01:56:28.487Z,65.69
2023-12-30T01:57:24.946Z,65.75
2023-12-30T01:58:23.972Z,65.80
2023-12-30T01:59:23.943Z,65.66
2023-12-30T02:00:24.040Z,65.70
2023-12-30T02:01:23.967Z,66.04
2023-12-30T02:02:24.935Z,65.68
2023-12-30T02:03:23.964Z,65.96
2023-12-30T02:04:24.030Z,65.94
2023-12-30T02:05:26.951Z,63.22
2023-12-30T02:06:23.985Z,65.72
2023-12-30T02:07:24.003Z,65.75
2023-12-30T02:08:23.952Z,64.51
2023-12-30T02:09:24.936Z,63.84
2023-12-30T02:10:23.976Z,65.70
2023-12-30T02:11:25.011Z,65.92
2023-12-30T02:12:23.984Z,65.83
2023-12-30T02:13:23.992Z,64.47
2023-12-30T02:14:25.394Z,65.86
2023-12-30T02:15:23.975Z,64.96
2023-12-30T02:16:24.035Z,65.28
2023-12-30T02:17:23.938Z,63.32
2023-12-30T02:18:23.937Z,65.04
2023-12-30T02:19:24.056Z,62.26
2023-12-30T02:20:23.912Z,63.29
2023-12-30T02:21:23.927Z,64.34
2023-12-30T02:22:23.989Z,62.92
2023-12-30T02:23:24.956Z,63.23
2023-12-30T02:57:47.919Z,63.33
2023-12-30T02:58:24.536Z,66.79
2023-12-30T02:59:23.526Z,67.94
2023-12-30T03:00:23.542Z,84.06
2023-12-30T03:01:24.488Z,106.44
2023-12-30T03:02:24.422Z,134.48
2023-12-30T03:03:23.498Z,164.60
2023-12-30T03:04:23.638Z,159.76
2023-12-30T03:05:24.503Z,152.02
2023-12-30T03:06:23.536Z,142.96
2023-12-30T03:07:24.474Z,136.29
2023-12-30T03:08:28.479Z,130.01
2023-12-30T03:09:23.913Z,124.04
2023-12-30T03:10:23.638Z,120.70
2023-12-30T03:11:24.472Z,113.88
2023-12-30T03:12:23.503Z,111.22
2023-12-30T03:13:24.549Z,106.50
2023-12-30T03:14:23.994Z,102.35
2023-12-30T03:15:23.508Z,101.83
2023-12-30T03:16:23.585Z,99.77
2023-12-30T03:17:26.496Z,96.97
2023-12-30T03:18:25.698Z,95.37
2023-12-30T03:19:24.455Z,94.63
2023-12-30T03:20:23.514Z,91.47
2023-12-30T03:21:23.493Z,91.30
2023-12-30T03:22:23.529Z,89.52
2023-12-30T03:23:25.482Z,88.18
2023-12-30T03:24:23.935Z,87.26
2023-12-30T03:25:25.579Z,82.10
2023-12-30T03:26:23.491Z,82.49
2023-12-30T03:27:25.436Z,80.96
2023-12-30T03:28:23.509Z,79.53
2023-12-30T03:29:23.588Z,77.28
2023-12-30T03:30:23.536Z,78.88
2023-12-30T03:31:24.607Z,77.09
2023-12-30T03:32:23.513Z,73.37
2023-12-30T03:33:28.602Z,76.15
2023-12-30T03:34:23.568Z,76.19
2023-12-30T03:35:23.479Z,74.55
2023-12-30T03:36:23.519Z,73.43
2023-12-30T03:37:23.591Z,72.77
2023-12-30T03:38:23.559Z,71.33
2023-12-30T03:39:24.029Z,69.59
2023-12-30T03:40:45.478Z,68.88
2023-12-30T03:41:23.598Z,69.00
2023-12-30T03:42:24.460Z,69.56
2023-12-30T03:43:24.462Z,69.10
2023-12-30T03:44:25.568Z,69.66
2023-12-30T03:45:25.452Z,70.33
2023-12-30T03:46:23.494Z,71.49
2023-12-30T03:47:23.721Z,69.06
2023-12-30T03:48:25.614Z,68.85
2023-12-30T03:49:23.584Z,68.96
2023-12-30T03:50:23.514Z,68.77
2023-12-30T03:51:23.477Z,68.93
2023-12-30T03:52:25.473Z,66.63
2023-12-30T03:53:25.566Z,67.01
2023-12-30T03:54:23.959Z,67.30
2023-12-30T03:55:23.563Z,67.08
2023-12-30T03:56:23.549Z,67.10
2023-12-30T03:57:23.514Z,67.09
2023-12-30T03:58:23.522Z,65.18
2023-12-30T03:59:23.562Z,64.78
2023-12-30T04:00:26.562Z,66.66
2023-12-30T04:01:23.544Z,66.31
2023-12-30T04:02:24.524Z,64.34
2023-12-30T04:03:23.693Z,64.98
2023-12-30T04:04:25.499Z,63.80
2023-12-30T04:05:23.523Z,65.46
2023-12-30T04:06:25.478Z,66.43
2023-12-30T04:07:23.527Z,62.30
2023-12-30T04:08:23.532Z,65.21
2023-12-30T04:09:25.708Z,64.30
2023-12-30T04:10:23.518Z,64.04
2023-12-30T04:11:23.633Z,64.70
2023-12-30T04:12:23.534Z,62.98
2023-12-30T04:13:23.552Z,62.44
2023-12-30T04:14:23.949Z,64.29
2023-12-30T04:15:23.624Z,60.87
2023-12-30T04:16:23.559Z,61.55
2023-12-30T04:17:23.649Z,61.75
2023-12-30T04:18:23.751Z,61.26
2023-12-30T04:19:24.116Z,61.72
2023-12-30T04:20:23.552Z,61.98
2023-12-30T04:21:23.528Z,59.75
2023-12-30T04:22:23.686Z,59.34
2023-12-30T04:23:24.591Z,60.88
2023-12-30T04:24:23.578Z,59.95
2023-12-30T04:25:23.666Z,61.77
2023-12-30T04:26:23.559Z,58.76
2023-12-30T04:27:23.540Z,60.76
2023-12-30T04:28:23.637Z,61.79
2023-12-30T04:29:23.635Z,60.99
2023-12-30T04:30:24.628Z,60.99
2023-12-30T04:31:25.513Z,61.79
2023-12-30T04:32:23.558Z,58.97
2023-12-30T04:33:23.663Z,59.71
2023-12-30T04:34:23.709Z,60.54
2023-12-30T04:35:23.588Z,58.17
2023-12-30T04:36:24.531Z,58.04
2023-12-30T04:37:23.596Z,58.50
2023-12-30T04:38:23.529Z,57.47
2023-12-30T04:39:23.957Z,59.82
2023-12-30T04:40:23.609Z,57.14
2023-12-30T04:41:23.538Z,58.11
2023-12-30T04:42:23.690Z,57.58
2023-12-30T04:43:23.580Z,57.58
2023-12-30T04:44:23.605Z,57.64
2023-12-30T04:45:24.462Z,57.61
2023-12-30T04:46:23.594Z,56.67
2023-12-30T04:47:23.509Z,57.13
2023-12-30T04:48:24.536Z,56.55
2023-12-30T05:00:38.420Z,50.00
2023-12-30T05:01:37.382Z,50.00
2023-12-30T05:02:36.272Z,50.00
2023-12-30T05:03:36.364Z,50.00
2023-12-30T05:04:36.744Z,50.00
2023-12-30T05:05:36.357Z,50.00
2023-12-30T05:06:38.859Z,50.00
2023-12-30T05:07:36.193Z,50.00
2023-12-30T05:08:36.227Z,50.00
2023-12-30T05:09:36.156Z,50.00
2023-12-30T05:10:37.248Z,50.00
2023-12-30T05:11:36.770Z,50.00
2023-12-30T05:12:36.845Z,50.00
2023-12-30T05:13:36.111Z,50.00
2023-12-30T05:14:36.086Z,50.00
2023-12-30T05:15:35.994Z,50.00
2023-12-30T05:16:35.991Z,50.00
2023-12-30T05:17:37.920Z,50.00
2023-12-30T05:18:36.819Z,50.00
2023-12-30T05:19:36.023Z,50.00
2023-12-30T05:20:36.798Z,50.00
2023-12-30T05:21:38.092Z,50.00
2023-12-30T05:22:35.919Z,50.57
2023-12-30T05:23:37.903Z,51.95
2023-12-30T05:24:36.273Z,50.39
2023-12-30T05:25:36.096Z,52.11
2023-12-30T05:26:36.782Z,52.17
2023-12-30T05:27:35.925Z,52.22
2023-12-30T05:28:35.828Z,52.22
2023-12-30T05:29:36.756Z,50.26
2023-12-30T05:30:35.821Z,47.56
2023-12-30T05:31:35.846Z,52.93
2023-12-30T05:32:35.833Z,52.30
2023-12-30T05:33:37.306Z,52.14
2023-12-30T05:34:43.446Z,50.85
2023-12-30T05:35:36.296Z,50.93
2023-12-30T05:36:35.625Z,51.42
2023-12-30T05:37:35.669Z,51.24
2023-12-30T05:38:35.545Z,51.62
2023-12-30T05:39:35.520Z,51.27
2023-12-30T05:40:35.550Z,51.68
2023-12-30T05:41:35.459Z,51.98
2023-12-30T05:42:35.465Z,52.04
2023-12-30T05:43:36.304Z,52.01
2023-12-30T05:44:35.527Z,52.47
2023-12-30T05:45:35.347Z,52.05
2023-12-30T05:46:35.347Z,52.00
2023-12-30T05:47:35.299Z,52.43
2023-12-30T05:48:35.348Z,51.34
2023-12-30T05:49:35.343Z,51.79
2023-12-30T05:50:35.765Z,50.42
2023-12-30T05:51:35.194Z,50.35
2023-12-30T05:52:35.266Z,51.01
2023-12-30T05:53:35.851Z,52.10
2023-12-30T05:54:35.139Z,53.38
2023-12-30T05:55:35.144Z,53.41
2023-12-30T05:56:35.142Z,52.36
2023-12-30T05:57:35.386Z,51.29
2023-12-30T05:58:35.082Z,52.63
2023-12-30T05:59:35.275Z,49.22
2023-12-30T06:00:35.126Z,52.15
2023-12-30T06:01:35.071Z,53.22
2023-12-30T06:02:35.775Z,52.88
2023-12-30T06:03:34.983Z,53.16
2023-12-30T06:04:36.868Z,51.82
2023-12-30T06:05:34.903Z,52.56
2023-12-30T06:06:34.835Z,52.49
2023-12-30T06:07:36.879Z,51.26
2023-12-30T06:08:34.852Z,52.83
2023-12-30T06:09:34.769Z,52.19
2023-12-30T06:10:34.778Z,52.63
2023-12-30T06:11:34.733Z,52.58
2023-12-30T06:12:34.711Z,52.60
2023-12-30T06:13:34.765Z,52.82
2023-12-30T06:14:34.976Z,51.98
2023-12-30T06:15:34.625Z,51.93
2023-12-30T06:16:34.680Z,51.53
2023-12-30T06:17:34.612Z,51.26
2023-12-30T06:18:34.658Z,49.84
2023-12-30T06:19:35.405Z,53.25
2023-12-30T06:20:34.661Z,51.73
2023-12-30T06:21:35.418Z,52.00
2023-12-30T06:22:34.573Z,52.38
2023-12-30T06:23:34.483Z,52.80
2023-12-30T06:24:34.505Z,51.42
2023-12-30T06:25:34.671Z,52.33
2023-12-30T06:26:34.429Z,52.96
2023-12-30T06:27:34.365Z,52.59
2023-12-30T06:28:34.410Z,51.88
2023-12-30T06:29:35.414Z,52.91
2023-12-30T06:30:34.536Z,52.42
2023-12-30T06:31:34.437Z,53.68
2023-12-30T06:32:35.378Z,52.11
2023-12-30T06:33:34.579Z,54.17
2023-12-30T06:34:35.570Z,52.91
2023-12-30T06:35:34.510Z,54.05
2023-12-30T06:36:41.335Z,51.57
2023-12-30T06:37:34.577Z,51.70
2023-12-30T06:38:35.324Z,51.89
2023-12-30T06:39:34.480Z,52.28
2023-12-30T06:40:34.510Z,53.28
2023-12-30T06:41:34.468Z,52.89
2023-12-30T06:42:34.484Z,52.99
2023-12-30T06:43:34.498Z,51.89
2023-12-30T06:44:34.533Z,51.95
2023-12-30T06:45:34.322Z,52.41
2023-12-30T06:46:34.340Z,52.23
2023-12-30T06:47:34.325Z,52.25
2023-12-30T06:48:34.359Z,52.36
2023-12-30T06:49:34.340Z,52.85
2023-12-30T06:50:34.240Z,51.27
2023-12-30T06:51:34.289Z,50.95
2023-12-30T06:52:34.328Z,52.24
2023-12-30T06:53:34.264Z,52.49
2023-12-30T06:54:34.368Z,52.32
2023-12-30T06:55:38.945Z,52.39
2023-12-30T06:56:35.427Z,52.27
2023-12-30T06:57:34.375Z,52.08
2023-12-30T06:58:35.434Z,51.93
2023-12-30T06:59:34.885Z,52.49
2023-12-30T07:00:36.361Z,48.22
2023-12-30T07:01:35.450Z,53.98
2023-12-30T07:02:34.485Z,51.24
2023-12-30T07:03:34.489Z,50.00
2023-12-30T07:04:34.580Z,52.10
2023-12-30T07:05:35.437Z,52.75
2023-12-30T07:06:34.525Z,53.33
2023-12-30T07:07:34.495Z,53.36
2023-12-30T07:08:35.304Z,54.40
2023-12-30T07:09:34.524Z,52.65
2023-12-30T07:10:35.385Z,51.97
2023-12-30T07:11:34.406Z,53.29
2023-12-30T07:12:34.355Z,52.80
2023-12-30T07:13:34.438Z,52.21
2023-12-30T07:14:34.364Z,54.14
2023-12-30T07:15:34.806Z,50.69
2023-12-30T07:16:34.311Z,53.28
2023-12-30T07:17:34.388Z,51.55
2023-12-30T07:18:34.267Z,53.89
2023-12-30T07:19:34.270Z,54.05
2023-12-30T07:20:34.164Z,52.30
2023-12-30T07:21:34.161Z,53.66
2023-12-30T07:22:34.219Z,54.61
2023-12-30T07:23:34.095Z,54.83
2023-12-30T07:24:34.088Z,53.79
2023-12-30T07:26:36.068Z,53.90
2023-12-30T07:27:33.985Z,54.30
2023-12-30T07:28:35.002Z,55.63
2023-12-30T07:29:33.975Z,56.12
2023-12-30T07:30:33.918Z,57.99
2023-12-30T07:31:33.835Z,60.07
2023-12-30T07:32:34.885Z,58.74
2023-12-30T07:33:33.969Z,58.07
2023-12-30T07:34:33.812Z,56.94
2023-12-30T07:35:33.784Z,55.38
2023-12-30T07:36:34.763Z,55.31
2023-12-30T07:37:33.981Z,56.27
2023-12-30T07:38:34.405Z,56.28
2023-12-30T07:39:33.746Z,55.15
2023-12-30T07:40:33.755Z,56.17
2023-12-30T07:41:33.681Z,56.15
2023-12-30T07:42:33.653Z,55.04
2023-12-30T07:43:33.704Z,53.64
2023-12-30T07:44:33.838Z,53.61
2023-12-30T07:45:33.574Z,54.30
2023-12-30T07:46:34.548Z,52.72
2023-12-30T07:47:34.704Z,52.77
2023-12-30T07:48:33.505Z,51.69
2023-12-30T07:49:33.720Z,52.44
2023-12-30T07:50:33.425Z,54.70
2023-12-30T07:51:34.313Z,52.12
2023-12-30T07:52:33.512Z,52.31
2023-12-30T07:53:33.521Z,51.26
2023-12-30T07:54:33.529Z,51.92
2023-12-30T07:55:34.324Z,54.33
2023-12-30T07:56:33.414Z,51.76
2023-12-30T07:57:34.319Z,50.00
2023-12-30T07:58:33.606Z,53.26
2023-12-30T07:59:33.511Z,53.40
2023-12-30T08:00:33.482Z,53.05
2023-12-30T08:01:34.640Z,52.52
2023-12-30T08:02:34.334Z,53.75
2023-12-30T08:03:34.362Z,52.90
2023-12-30T08:04:33.601Z,51.11
2023-12-30T08:05:33.599Z,53.56
2023-12-30T08:06:33.492Z,53.59
2023-12-30T08:07:36.397Z,53.29
2023-12-30T08:08:33.481Z,52.24
2023-12-30T08:09:33.501Z,53.11
2023-12-30T08:10:33.456Z,51.54
2023-12-30T08:11:39.688Z,52.83
2023-12-30T08:12:34.370Z,52.85
2023-12-30T08:13:33.388Z,52.41
2023-12-30T08:14:33.391Z,53.16
2023-12-30T08:15:33.341Z,52.91
2023-12-30T08:16:33.442Z,52.96
2023-12-30T08:17:33.444Z,53.45
2023-12-30T08:18:34.034Z,52.88
2023-12-30T08:19:33.300Z,53.31
2023-12-30T08:20:33.878Z,53.42
2023-12-30T08:21:33.207Z,53.07
2023-12-30T08:22:33.926Z,52.36
2023-12-30T08:23:33.859Z,53.40
2023-12-30T08:24:33.143Z,54.67
2023-12-30T08:25:33.190Z,54.34
2023-12-30T08:26:33.861Z,52.70
2023-12-30T08:27:33.065Z,54.04
2023-12-30T08:28:33.006Z,52.59
2023-12-30T08:29:32.949Z,52.68
2023-12-30T08:30:33.879Z,52.81
2023-12-30T08:31:33.043Z,52.98
2023-12-30T08:32:32.900Z,51.61
2023-12-30T08:33:33.865Z,52.69
2023-12-30T08:34:33.676Z,52.96
2023-12-30T08:35:32.795Z,52.65
2023-12-30T08:36:32.768Z,53.03
2023-12-30T08:37:32.803Z,52.63
2023-12-30T08:38:32.705Z,52.89
2023-12-30T08:39:32.722Z,53.82
2023-12-30T08:40:35.003Z,54.35
2023-12-30T08:41:32.609Z,52.71
2023-12-30T08:42:32.560Z,52.92
2023-12-30T08:43:32.713Z,53.69
2023-12-30T08:44:32.589Z,54.32
2023-12-30T08:45:33.365Z,52.66
2023-12-30T08:46:32.719Z,52.65
2023-12-30T08:47:32.477Z,52.74
2023-12-30T08:48:32.438Z,53.33
2023-12-30T08:49:32.527Z,53.70
2023-12-30T08:50:32.416Z,55.11
2023-12-30T08:51:32.357Z,53.41
2023-12-30T08:52:32.418Z,54.66
2023-12-30T08:53:32.275Z,55.28
2023-12-30T08:54:32.268Z,54.06
2023-12-30T08:55:32.281Z,53.09
2023-12-30T08:56:32.921Z,54.05
2023-12-30T08:57:32.145Z,51.99
2023-12-30T08:58:34.000Z,54.38
2023-12-30T08:59:32.176Z,54.41
2023-12-30T09:00:32.079Z,54.48
2023-12-30T09:01:33.021Z,54.25
2023-12-30T09:02:32.000Z,53.78
2023-12-30T09:03:32.903Z,54.58
2023-12-30T09:04:32.552Z,53.92
2023-12-30T09:05:32.860Z,52.65
2023-12-30T09:06:32.878Z,52.80
2023-12-30T09:07:31.908Z,54.19
2023-12-30T09:08:31.814Z,54.71
2023-12-30T09:09:31.891Z,51.37
2023-12-30T09:10:31.774Z,54.46
2023-12-30T09:11:31.711Z,52.65
2023-12-30T09:12:31.676Z,53.25
2023-12-30T09:13:31.817Z,52.79
2023-12-30T09:14:31.632Z,53.17
2023-12-30T09:15:31.613Z,54.37
2023-12-30T09:16:31.564Z,53.43
2023-12-30T09:17:31.604Z,53.11
2023-12-30T09:18:31.513Z,53.76
2023-12-30T09:19:32.972Z,53.48
2023-12-30T09:20:32.369Z,54.54
2023-12-30T09:21:31.384Z,52.78
2023-12-30T09:22:31.418Z,53.64
2023-12-30T09:23:31.357Z,55.18
2023-12-30T09:24:39.760Z,50.00
2023-12-30T09:25:40.438Z,50.00
2023-12-30T09:26:38.686Z,50.00
2023-12-30T09:27:38.673Z,50.00
2023-12-30T09:28:38.798Z,50.00
2023-12-30T09:29:38.755Z,50.00
2023-12-30T09:30:38.739Z,50.00
2023-12-30T09:31:38.699Z,52.13
2023-12-30T09:32:38.828Z,50.29
2023-12-30T09:34:43.865Z,51.94
2023-12-30T09:35:39.829Z,50.57
2023-12-30T09:36:38.713Z,52.24
2023-12-30T09:37:38.764Z,49.77
2023-12-30T09:38:38.750Z,53.12
2023-12-30T09:39:38.826Z,51.96
2023-12-30T09:40:38.916Z,51.99
2023-12-30T09:41:39.291Z,52.09
2023-12-30T09:42:38.874Z,51.95
2023-12-30T09:43:38.823Z,52.98
2023-12-30T09:44:39.623Z,50.23
2023-12-30T09:45:38.843Z,51.61
2023-12-30T09:46:38.793Z,50.52
2023-12-30T09:47:40.987Z,52.25
2023-12-30T09:48:38.869Z,52.00
2023-12-30T09:49:39.002Z,52.04
2023-12-30T09:50:38.937Z,52.04
2023-12-30T09:51:38.891Z,52.41
2023-12-30T09:52:39.974Z,48.75
2023-12-30T09:53:39.035Z,54.25
2023-12-30T09:54:46.007Z,53.79
2023-12-30T09:55:40.148Z,52.23
2023-12-30T09:56:39.102Z,52.51
2023-12-30T09:57:39.107Z,52.51
2023-12-30T09:58:39.189Z,51.97
2023-12-30T09:59:39.269Z,53.44
2023-12-30T10:00:39.259Z,52.66
2023-12-30T10:01:40.948Z,52.56
2023-12-30T10:02:39.195Z,52.38
2023-12-30T10:04:39.260Z,51.18
2023-12-30T10:05:39.869Z,51.24
2023-12-30T10:06:39.782Z,51.22
2023-12-30T10:07:39.208Z,52.21
2023-12-30T10:08:40.904Z,52.59
2023-12-30T10:09:39.255Z,52.80
2023-12-30T10:10:39.278Z,54.07
2023-12-30T10:11:39.194Z,53.61
2023-12-30T10:12:39.351Z,53.27
2023-12-30T10:13:39.803Z,51.44
2023-12-30T10:14:39.361Z,53.62
2023-12-30T10:15:40.283Z,52.80
2023-12-30T10:16:39.292Z,52.83
2023-12-30T10:17:40.337Z,53.18
2023-12-30T10:18:39.640Z,53.26
2023-12-30T10:19:39.416Z,54.49
2023-12-30T10:20:40.302Z,53.07
2023-12-30T10:21:39.341Z,52.94
2023-12-30T10:22:39.409Z,53.32
2023-12-30T10:23:39.415Z,53.39
2023-12-30T10:24:39.444Z,53.37
2023-12-30T10:25:40.317Z,52.77
2023-12-30T10:26:40.359Z,53.39
2023-12-30T10:27:40.413Z,53.85
2023-12-30T10:28:40.351Z,53.76
2023-12-30T10:29:47.087Z,55.07
2023-12-30T10:30:40.538Z,53.36
2023-12-30T10:31:41.342Z,53.86
2023-12-30T10:32:39.566Z,53.93
2023-12-30T10:33:39.638Z,54.98
2023-12-30T10:34:39.678Z,53.48
2023-12-30T10:35:39.592Z,53.40
2023-12-30T10:36:39.589Z,54.49
2023-12-30T10:37:39.760Z,54.50
2023-12-30T10:38:39.625Z,53.99
2023-12-30T10:39:39.709Z,53.04
2023-12-30T10:40:39.843Z,53.62
2023-12-30T10:41:40.295Z,54.89
2023-12-30T10:42:39.685Z,53.86
2023-12-30T10:43:39.783Z,53.80
2023-12-30T10:44:39.717Z,53.86
2023-12-30T10:45:39.785Z,54.14
2023-12-30T10:46:39.782Z,54.68
2023-12-30T10:47:39.853Z,54.76
2023-12-30T10:48:39.755Z,56.54
2023-12-30T10:49:39.877Z,56.32
2023-12-30T10:50:40.201Z,56.73
2023-12-30T10:51:39.753Z,57.19
2023-12-30T10:53:03.125Z,56.30
2023-12-30T10:53:39.955Z,56.42
2023-12-30T10:54:40.048Z,56.91
2023-12-30T10:55:40.191Z,56.43
2023-12-30T10:56:40.786Z,56.39
2023-12-30T10:57:40.799Z,56.92
2023-12-30T10:58:40.132Z,57.80
2023-12-30T10:59:40.055Z,56.49
2023-12-30T11:00:40.131Z,56.49
2023-12-30T11:01:40.154Z,56.53
2023-12-30T11:02:40.061Z,56.85
2023-12-30T11:03:40.293Z,58.76
2023-12-30T11:04:40.204Z,58.00
2023-12-30T11:05:40.892Z,60.16
2023-12-30T11:06:40.112Z,59.48
2023-12-30T11:07:40.979Z,59.71
2023-12-30T11:08:40.216Z,60.54
2023-12-30T11:09:40.383Z,59.91
2023-12-30T11:10:40.722Z,57.22
2023-12-30T11:11:40.181Z,61.42
2023-12-30T11:12:40.242Z,60.27
2023-12-30T11:13:40.349Z,57.21
2023-12-30T11:14:41.927Z,60.07
2023-12-30T11:15:41.395Z,58.18
2023-12-30T11:16:40.468Z,59.79
2023-12-30T11:17:40.523Z,59.62
2023-12-30T11:18:40.568Z,59.23
2023-12-30T11:19:40.702Z,58.99
2023-12-30T11:20:42.481Z,60.66
2023-12-30T11:21:40.534Z,57.50
2023-12-30T11:22:41.645Z,58.40
2023-12-30T11:23:40.641Z,60.94
2023-12-30T11:24:40.534Z,59.60
2023-12-30T11:25:40.557Z,60.47
2023-12-30T11:26:41.260Z,57.99
2023-12-30T11:27:40.759Z,59.34
2023-12-30T11:28:40.659Z,59.39
2023-12-30T11:29:40.912Z,59.63
2023-12-30T11:30:41.340Z,60.28
2023-12-30T11:31:40.661Z,61.24
2023-12-30T11:32:40.671Z,61.45
2023-12-30T11:33:40.706Z,59.43
2023-12-30T11:34:40.795Z,59.73
2023-12-30T11:35:40.683Z,60.01
2023-12-30T11:36:40.765Z,59.91
2023-12-30T11:37:40.763Z,61.05
2023-12-30T11:38:40.713Z,63.58
2023-12-30T11:39:40.874Z,60.83
2023-12-30T11:40:41.349Z,60.25
2023-12-30T11:41:40.780Z,62.59
2023-12-30T11:42:45.668Z,61.82
2023-12-30T11:43:41.827Z,61.59
2023-12-30T11:44:40.765Z,61.99
2023-12-30T11:45:41.330Z,61.39
2023-12-30T11:46:40.916Z,61.71
2023-12-30T11:47:40.941Z,62.02
2023-12-30T11:48:40.882Z,62.01
2023-12-30T11:49:40.900Z,62.13
2023-12-30T11:50:40.871Z,62.17
2023-12-30T11:51:40.885Z,62.32
2023-12-30T11:52:40.966Z,62.69
2023-12-30T11:53:40.877Z,63.57
2023-12-30T11:54:42.847Z,64.30
2023-12-30T11:55:40.981Z,65.50
2023-12-30T11:56:41.059Z,64.72
2023-12-30T11:57:40.910Z,65.64
2023-12-30T11:58:40.941Z,65.93
2023-12-30T11:59:41.388Z,64.88
2023-12-30T12:00:40.927Z,64.25
2023-12-30T12:01:42.047Z,66.77
2023-12-30T12:02:42.850Z,65.27
2023-12-30T12:03:41.002Z,65.32
2023-12-30T12:04:41.145Z,64.45
2023-12-30T12:05:41.925Z,63.67
2023-12-30T12:06:41.825Z,65.33
2023-12-30T12:07:41.878Z,64.19
2023-12-30T12:08:44.228Z,66.68
2023-12-30T12:09:41.062Z,65.76
2023-12-30T12:10:42.017Z,65.47
2023-12-30T12:11:41.000Z,67.16
2023-12-30T12:12:43.828Z,65.16
2023-12-30T12:13:41.183Z,65.29
2023-12-30T12:14:42.281Z,65.74
2023-12-30T12:15:41.175Z,66.82
2023-12-30T12:16:41.165Z,67.55
2023-12-30T12:17:41.554Z,65.32
2023-12-30T12:18:41.156Z,65.95
2023-12-30T12:19:41.237Z,66.46
2023-12-30T12:20:41.831Z,65.34
2023-12-30T12:21:41.829Z,65.80
2023-12-30T12:22:41.197Z,66.77
2023-12-30T12:23:42.239Z,67.76
2023-12-30T12:24:41.147Z,68.57
2023-12-30T12:25:41.851Z,70.99
2023-12-30T12:26:41.287Z,67.55
2023-12-30T12:27:41.324Z,70.74
2023-12-30T12:28:41.954Z,70.80
2023-12-30T12:29:42.393Z,70.76
2023-12-30T12:30:41.927Z,67.22
2023-12-30T12:31:41.512Z,70.80
2023-12-30T12:32:41.493Z,69.57
2023-12-30T12:33:41.547Z,71.14
2023-12-30T12:34:42.948Z,70.55
2023-12-30T12:35:41.661Z,72.97
2023-12-30T12:36:41.664Z,71.81
2023-12-30T12:37:42.479Z,71.81
2023-12-30T12:38:41.820Z,72.32
2023-12-30T12:39:42.392Z,72.01
2023-12-30T12:40:41.913Z,70.88
2023-12-30T12:41:41.971Z,71.04
2023-12-30T12:42:42.066Z,73.19
2023-12-30T12:43:42.049Z,71.88
2023-12-30T12:44:48.784Z,70.51
2023-12-30T12:45:42.073Z,70.60
2023-12-30T12:46:42.194Z,70.64
2023-12-30T12:47:42.915Z,70.74
2023-12-30T12:48:42.465Z,70.71
2023-12-30T12:49:43.165Z,70.70
2023-12-30T12:50:42.435Z,71.52
2023-12-30T12:51:42.391Z,72.07
2023-12-30T12:52:42.452Z,72.26
2023-12-30T12:53:42.406Z,70.70
2023-12-30T12:54:43.471Z,70.74
2023-12-30T12:55:43.384Z,71.53
2023-12-30T12:56:43.346Z,72.75
2023-12-30T12:57:42.502Z,75.06
2023-12-30T12:58:42.654Z,78.89
2023-12-30T12:59:42.489Z,75.26
2023-12-30T13:00:42.562Z,76.11
2023-12-30T13:01:42.646Z,76.13
2023-12-30T13:02:42.863Z,76.12
2023-12-30T13:03:42.511Z,76.42
2023-12-30T13:04:42.637Z,76.43
2023-12-30T13:05:43.392Z,77.18
2023-12-30T13:06:42.542Z,77.19
2023-12-30T13:07:42.725Z,77.59
2023-12-30T13:08:42.768Z,77.30
2023-12-30T13:09:42.628Z,76.12
2023-12-30T13:10:43.034Z,77.30
2023-12-30T13:11:42.629Z,76.89
2023-12-30T13:12:42.664Z,78.04
2023-12-30T13:13:43.043Z,75.19
2023-12-30T13:14:43.818Z,79.78
2023-12-30T13:15:42.856Z,79.07
2023-12-30T13:16:43.378Z,79.09
2023-12-30T13:17:43.994Z,79.18
2023-12-30T13:18:43.123Z,79.13
2023-12-30T13:19:44.928Z,78.32
2023-12-30T13:20:45.649Z,79.30
2023-12-30T13:21:43.118Z,79.08
2023-12-30T13:22:43.130Z,79.16
2023-12-30T13:23:43.034Z,78.88
2023-12-30T13:24:43.112Z,78.44
2023-12-30T13:25:43.162Z,79.10
2023-12-30T13:26:43.250Z,79.16
2023-12-30T13:27:43.972Z,79.69
2023-12-30T13:28:43.245Z,80.17
2023-12-30T13:29:43.930Z,80.32
2023-12-30T13:30:43.180Z,80.22
2023-12-30T13:31:43.210Z,79.18
2023-12-30T13:32:43.302Z,78.88
2023-12-30T13:33:44.923Z,79.49
2023-12-30T13:34:43.282Z,80.23
2023-12-30T13:35:44.912Z,79.13
2023-12-30T13:36:43.845Z,79.36
2023-12-30T13:37:43.303Z,80.09
2023-12-30T13:38:43.228Z,80.85
2023-12-30T13:39:43.852Z,82.19